Terminal Aerodrome Forecast
Issued by NWS

Home | Current Version | Previous Version | Text Only | Print | Product List | Glossary On
Versions: 1 2 3 4 5 6 7 8 9 10 11 12 13 14 15
000
FTUS45 KABQ 301100
TAFFMN
TAF
KFMN 301139Z 3012/3112 VRB06KT P6SM SCT120
     FM302000 27011G21KT P6SM SCT120
     FM310100 31010KT P6SM VCSH BKN100
     FM310600 09007KT P6SM SCT120=

USA.gov is the U.S. government's official web portal to all federal, state and local government web resources and services.